createdAt,value
2023-09-23T00:05:17.666Z,15.13
2023-09-23T00:10:40.075Z,15.10
2023-09-23T00:16:04.361Z,15.06
2023-09-23T00:21:26.177Z,15.07
2023-09-23T00:26:49.671Z,15.03
2023-09-23T00:32:13.660Z,15.01
2023-09-23T00:37:35.324Z,15.02
2023-09-23T00:42:57.818Z,15.03
2023-09-23T00:48:19.802Z,14.96
2023-09-23T00:53:42.010Z,14.97
2023-09-23T00:59:08.059Z,14.96
2023-09-23T01:04:30.631Z,14.90
2023-09-23T01:09:52.229Z,14.88
2023-09-23T01:15:14.146Z,14.92
2023-09-23T01:20:38.563Z,14.91
2023-09-23T01:26:00.212Z,14.87
2023-09-23T01:31:23.627Z,14.89
2023-09-23T01:36:45.392Z,14.89
2023-09-23T01:42:08.665Z,14.88
2023-09-23T01:47:30.449Z,14.88
2023-09-23T01:52:52.471Z,14.81
2023-09-23T01:58:15.354Z,14.81
2023-09-23T02:03:37.097Z,14.77
2023-09-23T02:08:58.795Z,14.72
2023-09-23T02:14:20.407Z,14.69
2023-09-23T02:19:42.216Z,14.67
2023-09-23T02:25:08.978Z,14.65
2023-09-23T02:30:32.036Z,14.63
2023-09-23T02:35:53.953Z,14.57
2023-09-23T02:41:15.664Z,14.52
2023-09-23T02:46:38.487Z,14.52
2023-09-23T02:52:00.050Z,14.50
2023-09-23T02:57:22.166Z,14.45
2023-09-23T03:02:54.561Z,14.42
2023-09-23T03:08:16.507Z,14.39
2023-09-23T03:13:38.137Z,14.42
2023-09-23T03:19:12.067Z,14.39
2023-09-23T03:24:33.980Z,14.36
2023-09-23T03:29:56.299Z,14.35
2023-09-23T03:35:19.190Z,14.31
2023-09-23T03:40:40.878Z,14.27
2023-09-23T03:46:02.515Z,14.18
2023-09-23T03:51:25.317Z,14.13
2023-09-23T03:56:46.876Z,14.03
2023-09-23T04:02:08.614Z,13.96
2023-09-23T04:07:30.208Z,13.96
2023-09-23T04:12:52.724Z,13.88
2023-09-23T04:18:14.346Z,13.86
2023-09-23T04:23:36.727Z,13.82
2023-09-23T04:28:59.265Z,13.82
2023-09-23T04:34:20.902Z,13.87
2023-09-23T04:39:42.551Z,13.88
2023-09-23T04:45:05.089Z,13.88
2023-09-23T04:50:28.857Z,13.88
2023-09-23T04:55:50.602Z,13.94
2023-09-23T05:01:13.451Z,13.93
2023-09-23T05:06:36.916Z,13.93
2023-09-23T05:11:59.155Z,13.88
2023-09-23T05:17:23.094Z,13.85
2023-09-23T05:22:44.851Z,13.89
2023-09-23T05:28:09.179Z,13.93
2023-09-23T05:33:32.379Z,13.92
2023-09-23T05:38:53.923Z,13.89
2023-09-23T05:44:17.553Z,13.87
2023-09-23T05:49:40.085Z,13.86
2023-09-23T05:55:01.960Z,13.75
2023-09-23T06:00:23.789Z,13.60
2023-09-23T06:05:46.030Z,13.51
2023-09-23T06:11:08.964Z,13.48
2023-09-23T06:16:30.644Z,13.42
2023-09-23T06:21:55.010Z,13.41
2023-09-23T06:27:17.905Z,13.47
2023-09-23T06:32:39.646Z,13.50
2023-09-23T06:38:01.251Z,13.47
2023-09-23T06:43:22.932Z,13.48
2023-09-23T06:48:44.609Z,13.49
2023-09-23T06:54:06.437Z,13.56
2023-09-23T06:59:28.044Z,13.60
2023-09-23T07:04:49.921Z,13.63
2023-09-23T07:10:12.003Z,13.66
2023-09-23T07:15:38.281Z,13.68
2023-09-23T07:20:59.957Z,13.73
2023-09-23T07:26:22.958Z,13.77
2023-09-23T07:31:44.597Z,13.87
2023-09-23T07:37:07.882Z,13.95
2023-09-23T07:42:30.649Z,14.01
2023-09-23T07:47:52.309Z,14.03
2023-09-23T07:53:13.971Z,14.09
2023-09-23T07:58:35.572Z,14.13
2023-09-23T08:03:57.127Z,14.15
2023-09-23T08:09:18.713Z,14.22
2023-09-23T08:14:40.341Z,14.25
2023-09-23T08:20:12.654Z,14.27
2023-09-23T08:25:37.605Z,14.34
2023-09-23T08:30:59.142Z,14.43
2023-09-23T08:36:20.729Z,14.48
2023-09-23T08:41:42.385Z,14.59
2023-09-23T08:47:05.611Z,14.65
2023-09-23T08:52:28.061Z,14.77
2023-09-23T08:57:49.618Z,14.89
2023-09-23T09:03:11.233Z,14.92
2023-09-23T09:08:33.183Z,14.94
2023-09-23T09:13:55.228Z,14.99
2023-09-23T09:19:16.925Z,15.05
2023-09-23T09:24:38.577Z,15.01
2023-09-23T09:30:12.498Z,15.08
2023-09-23T09:35:35.363Z,15.22
2023-09-23T09:41:05.863Z,15.36
2023-09-23T09:46:30.851Z,15.46
2023-09-23T09:51:53.492Z,15.47
2023-09-23T09:57:15.210Z,15.56
2023-09-23T10:02:38.467Z,15.68
2023-09-23T10:08:00.912Z,15.79
2023-09-23T10:13:25.672Z,15.87
2023-09-23T10:18:58.543Z,15.93
2023-09-23T10:24:21.742Z,15.92
2023-09-23T10:29:51.097Z,15.87
2023-09-23T10:35:12.864Z,15.94
2023-09-23T10:40:34.496Z,15.96
2023-09-23T10:45:58.588Z,15.99
2023-09-23T10:51:20.268Z,15.92
2023-09-23T10:56:42.496Z,16.01
2023-09-23T11:02:05.791Z,16.10
2023-09-23T11:07:28.603Z,16.19
2023-09-23T11:12:50.330Z,16.26
2023-09-23T11:18:17.168Z,16.28
2023-09-23T11:23:40.055Z,16.39
2023-09-23T11:29:01.683Z,16.48
2023-09-23T11:34:23.294Z,16.62
2023-09-23T11:39:44.889Z,16.77
2023-09-23T11:45:06.912Z,16.92
2023-09-23T11:50:28.629Z,17.11
2023-09-23T11:55:50.513Z,17.28
2023-09-23T12:01:12.145Z,17.37
2023-09-23T12:06:37.806Z,17.28
2023-09-23T12:11:59.449Z,17.14
2023-09-23T12:17:21.120Z,17.07
2023-09-23T12:22:42.886Z,17.10
2023-09-23T12:28:05.225Z,17.32
2023-09-23T12:33:26.832Z,17.45
2023-09-23T12:38:48.705Z,17.81
2023-09-23T12:44:10.976Z,17.82
2023-09-23T12:49:32.630Z,17.85
2023-09-23T12:54:54.242Z,17.97
2023-09-23T13:00:15.928Z,17.86
2023-09-23T13:05:38.132Z,17.79
2023-09-23T13:11:13.872Z,17.86
2023-09-23T13:16:35.519Z,17.97
2023-09-23T13:21:57.168Z,18.12
2023-09-23T13:27:19.502Z,18.10
2023-09-23T13:32:41.274Z,18.02
2023-09-23T13:38:03.052Z,17.91
2023-09-23T13:43:25.352Z,17.79
2023-09-23T13:48:47.161Z,17.71
2023-09-23T13:54:08.983Z,17.66
2023-09-23T13:59:30.558Z,17.68
2023-09-23T14:04:52.144Z,17.58
2023-09-23T14:10:21.310Z,17.51
2023-09-23T14:15:44.259Z,17.38
2023-09-23T14:21:05.924Z,17.23
2023-09-23T14:26:27.514Z,17.13
2023-09-23T14:31:49.100Z,17.06
2023-09-23T14:37:10.709Z,16.90
2023-09-23T14:42:32.340Z,16.84
2023-09-23T14:47:54.073Z,16.69
2023-09-23T14:53:17.202Z,16.51
2023-09-23T14:58:39.504Z,16.41
2023-09-23T15:04:01.349Z,16.44
2023-09-23T15:09:23.416Z,16.61
2023-09-23T15:14:46.377Z,16.68
2023-09-23T15:20:12.737Z,16.72
2023-09-23T15:25:34.585Z,16.75
2023-09-23T15:30:57.795Z,16.72
2023-09-23T15:36:19.612Z,16.72
2023-09-23T15:41:53.849Z,16.92
2023-09-23T15:47:20.103Z,16.99
2023-09-23T15:52:43.550Z,16.89
2023-09-23T15:58:05.455Z,16.84
2023-09-23T16:03:27.208Z,17.01
2023-09-23T16:08:49.220Z,17.00
2023-09-23T16:14:12.033Z,16.91
2023-09-23T16:19:34.503Z,16.91
2023-09-23T16:24:58.881Z,16.82
2023-09-23T16:30:20.479Z,16.78
2023-09-23T16:35:42.185Z,16.73
2023-09-23T16:41:04.196Z,16.67
2023-09-23T16:46:26.274Z,16.65
2023-09-23T16:51:49.242Z,16.63
2023-09-23T16:57:11.276Z,16.58
2023-09-23T17:02:33.396Z,16.52
2023-09-23T17:07:55.294Z,16.52
2023-09-23T17:13:16.991Z,16.49
2023-09-23T17:18:38.786Z,16.43
2023-09-23T17:24:00.799Z,16.44
2023-09-23T17:29:22.537Z,16.44
2023-09-23T17:34:45.579Z,16.33
2023-09-23T17:40:08.188Z,16.33
2023-09-23T17:45:29.845Z,16.27
2023-09-23T17:50:56.153Z,16.15
2023-09-23T17:56:17.909Z,16.13
2023-09-23T18:01:39.556Z,16.11
2023-09-23T18:07:01.185Z,16.07
2023-09-23T18:12:23.113Z,16.01
2023-09-23T18:17:44.780Z,15.97
2023-09-23T18:23:07.110Z,15.88
2023-09-23T18:28:29.208Z,15.79
2023-09-23T18:33:51.413Z,15.81
2023-09-23T18:39:13.276Z,15.77
2023-09-23T18:44:34.907Z,15.78
2023-09-23T18:49:56.634Z,15.77
2023-09-23T18:55:18.333Z,15.68
2023-09-23T19:00:41.083Z,15.66
2023-09-23T19:06:03.110Z,15.61
2023-09-23T19:11:24.797Z,15.57
2023-09-23T19:16:46.413Z,15.53
2023-09-23T19:22:14.097Z,15.43
2023-09-23T19:27:36.572Z,15.37
2023-09-23T19:32:58.372Z,15.31
2023-09-23T19:38:20.255Z,15.24
2023-09-23T19:43:42.004Z,15.18
2023-09-23T19:49:03.698Z,15.11
2023-09-23T19:54:26.421Z,15.08
2023-09-23T19:59:48.149Z,15.03
2023-09-23T20:05:11.641Z,14.97
2023-09-23T20:10:35.674Z,14.90
2023-09-23T20:15:58.287Z,14.85
2023-09-23T20:21:20.269Z,14.83
2023-09-23T20:26:41.986Z,14.75
2023-09-23T20:32:03.875Z,14.68
2023-09-23T20:37:25.469Z,14.62
2023-09-23T20:42:47.303Z,14.57
2023-09-23T20:48:10.204Z,14.59
2023-09-23T20:53:35.748Z,14.56
2023-09-23T20:58:58.339Z,14.51
2023-09-23T21:04:20.185Z,14.52
2023-09-23T21:09:42.348Z,14.50
2023-09-23T21:15:04.680Z,14.39
2023-09-23T21:20:26.770Z,14.36
2023-09-23T21:25:53.501Z,14.28
2023-09-23T21:31:16.618Z,14.21
2023-09-23T21:36:40.178Z,14.19
2023-09-23T21:42:02.309Z,14.13
2023-09-23T21:47:24.035Z,14.11
2023-09-23T21:52:45.636Z,14.14
2023-09-23T21:58:07.255Z,14.17
2023-09-23T22:03:32.044Z,14.16
2023-09-23T22:08:54.186Z,14.13
2023-09-23T22:14:16.380Z,14.16
2023-09-23T22:19:38.846Z,14.19
2023-09-23T22:25:00.462Z,14.18
2023-09-23T22:30:27.009Z,14.13
2023-09-23T22:35:48.935Z,14.14
2023-09-23T22:41:10.681Z,14.09
2023-09-23T22:46:32.342Z,14.03
2023-09-23T22:51:54.614Z,13.97
2023-09-23T22:57:16.162Z,13.97
2023-09-23T23:02:39.196Z,13.91
2023-09-23T23:08:02.267Z,13.91
2023-09-23T23:13:23.829Z,13.88
2023-09-23T23:18:45.722Z,13.85
2023-09-23T23:24:07.750Z,13.83
2023-09-23T23:29:29.421Z,13.75
2023-09-23T23:34:52.512Z,13.69
2023-09-23T23:40:14.203Z,13.65
2023-09-23T23:45:35.843Z,13.61
2023-09-23T23:51:10.525Z,13.60
2023-09-23T23:56:32.493Z,13.60
